Time;durP1;ratioP1;P1;durP2;ratioP2;P2;SDS_P1;SDS_P2;PMS_P1;PMS_P2;Temp;Humidity;BMP_temperature;BMP_pressure;BME280_temperature;BME280_humidity;BME280_pressure;Samples;Min_cycle;Max_cycle;Signal;HPM_P1;HPM_P2
2022/02/02 00:01:59;;;;;;;4.07;2.20;;;21.30;53.60;;;;;;4968965;28;88366;-80
2022/02/02 00:04:29;;;;;;;;;;;21.30;53.60;;;;;;4970206;28;87747;-80
2022/02/02 00:07:11;;;;;;;4.63;2.10;;;21.20;53.50;;;;;;4970968;28;88040;-80
2022/02/02 00:09:50;;;;;;;4.18;2.03;;;21.20;53.40;;;;;;4968126;28;87839;-78
2022/02/02 00:20:21;;;;;;;3.35;1.80;;;21.20;53.50;;;;;;4972631;28;87198;-81
2022/02/02 00:22:52;;;;;;;4.55;2.33;;;21.20;53.30;;;;;;4972485;28;86935;-77
2022/02/02 00:25:22;;;;;;;4.97;2.15;;;21.20;53.30;;;;;;4972309;28;87947;-81
2022/02/02 00:27:53;;;;;;;3.95;2.30;;;21.10;53.20;;;;;;4970969;28;87951;-79
2022/02/02 00:30:22;;;;;;;6.75;2.47;;;21.10;53.10;;;;;;4971400;28;88573;-80
2022/02/02 00:35:38;;;;;;;3.90;2.28;;;21.10;53.30;;;;;;4971710;28;87809;-81
2022/02/02 00:38:04;;;;;;;3.75;1.88;;;21.10;53.00;;;;;;4971603;28;87817;-82
2022/02/02 00:40:46;;;;;;;4.18;2.08;;;21.10;53.10;;;;;;4970651;28;87924;-84
2022/02/02 00:43:12;;;;;;;5.32;2.40;;;21.10;53.30;;;;;;4971952;28;87411;-80
2022/02/02 00:45:44;;;;;;;3.67;2.08;;;21.10;53.10;;;;;;4972181;28;87064;-80
2022/02/02 00:48:11;;;;;;;2.55;1.67;;;21.10;53.20;;;;;;4970439;28;90689;-80
2022/02/02 00:50:37;;;;;;;3.95;2.10;;;21.10;53.30;;;;;;4971339;28;88065;-81
2022/02/02 00:53:03;;;;;;;4.60;2.30;;;21.10;53.00;;;;;;4969476;28;88583;-79
2022/02/02 00:55:28;;;;;;;4.75;2.00;;;21.00;53.10;;;;;;4971643;28;87839;-80
2022/02/02 00:57:54;;;;;;;4.65;2.03;;;21.00;53.30;;;;;;4971160;28;87665;-80
2022/02/02 01:00:19;;;;;;;3.67;2.17;;;21.00;53.30;;;;;;4971343;28;87351;-79
2022/02/02 01:02:46;;;;;;;5.10;2.20;;;21.00;53.10;;;;;;4971401;28;87072;-80
2022/02/02 01:05:12;;;;;;;3.78;2.00;;;21.00;53.00;;;;;;4969425;28;89562;-82
2022/02/02 01:10:29;;;;;;;4.40;2.20;;;21.00;53.10;;;;;;4971363;28;87467;-80
2022/02/02 01:28:57;;;;;;;3.80;1.83;;;21.00;52.80;;;;;;4967425;28;87821;-81
2022/02/02 01:31:22;;;;;;;3.92;1.90;;;21.00;52.60;;;;;;4968241;28;87374;-80
2022/02/02 01:33:49;;;;;;;4.00;2.25;;;20.90;52.60;;;;;;4969484;28;87397;-80
2022/02/02 01:36:15;;;;;;;4.78;2.40;;;20.90;52.40;;;;;;4970954;28;87232;-83
2022/02/02 01:38:42;;;;;;;5.28;2.33;;;20.90;52.50;;;;;;4970617;28;88135;-79
2022/02/02 01:41:19;;;;;;;4.38;2.20;;;20.90;52.50;;;;;;4969677;28;87834;-80
2022/02/02 01:43:52;;;;;;;3.80;1.98;;;20.90;52.50;;;;;;4970551;28;88761;-82
2022/02/02 01:46:20;;;;;;;5.35;2.30;;;20.90;52.40;;;;;;4971084;28;87713;-84
2022/02/02 01:54:03;;;;;;;4.57;1.90;;;20.90;52.40;;;;;;4970023;28;87525;-80
2022/02/02 01:56:29;;;;;;;3.50;2.00;;;20.90;52.30;;;;;;4969889;28;87959;-80
2022/02/02 01:59:18;;;;;;;5.65;2.03;;;20.90;52.30;;;;;;4970383;28;89077;-81
2022/02/02 02:01:44;;;;;;;4.70;2.08;;;20.90;52.40;;;;;;4970923;28;88542;-80
2022/02/02 02:04:10;;;;;;;2.92;1.98;;;20.90;52.40;;;;;;4970598;28;86959;-81
2022/02/02 02:06:36;;;;;;;3.60;2.05;;;20.90;52.30;;;;;;4970331;28;87716;-79
2022/02/02 02:09:01;;;;;;;4.68;2.38;;;20.90;53.10;;;;;;4969816;28;88848;-81
2022/02/02 02:11:27;;;;;;;4.88;2.40;;;20.90;52.30;;;;;;4968156;28;90163;-78
2022/02/02 02:16:18;;;;;;;4.15;1.95;;;20.90;52.30;;;;;;4969830;28;88272;-80
2022/02/02 02:18:44;;;;;;;4.80;2.03;;;20.90;52.20;;;;;;4968611;28;91153;-81
2022/02/02 02:21:13;;;;;;;2.63;1.73;;;20.90;52.20;;;;;;4970405;28;87861;-82
2022/02/02 02:23:39;;;;;;;5.15;2.05;;;20.90;52.20;;;;;;4968515;28;87820;-81
2022/02/02 02:26:06;;;;;;;4.45;2.17;;;20.90;52.30;;;;;;4970685;28;87479;-81
2022/02/02 02:31:27;;;;;;;4.80;2.28;;;20.80;52.20;;;;;;4969236;28;87608;-81
2022/02/02 02:34:14;;;;;;;4.00;2.13;;;20.90;52.20;;;;;;4964519;28;88807;-80
2022/02/02 02:55:54;;;;;;;;;;;20.80;51.80;;;;;;4971040;28;87814;-81
2022/02/02 03:01:16;;;;;;;4.15;2.10;;;20.80;51.70;;;;;;4969369;28;88819;-80
2022/02/02 03:29:50;;;;;;;5.15;2.15;;;20.80;52.00;;;;;;4968338;28;88056;-81
2022/02/02 03:53:45;;;;;;;5.95;2.30;;;20.70;51.60;;;;;;5013898;22;87476;-83
2022/02/02 04:01:10;;;;;;;4.75;2.00;;;20.70;51.40;;;;;;4970742;28;87469;-84
2022/02/02 04:03:58;;;;;;;4.63;2.15;;;20.70;51.60;;;;;;4969771;28;87450;-84
2022/02/02 04:06:25;;;;;;;5.50;2.05;;;20.70;51.50;;;;;;4968705;28;90889;-84
2022/02/02 04:08:51;;;;;;;4.65;2.17;;;20.60;51.50;;;;;;4971215;28;87348;-84
2022/02/02 04:11:34;;;;;;;3.97;1.88;;;20.60;51.60;;;;;;4971913;28;87512;-85
2022/02/02 04:55:21;;;;;;;3.47;1.90;;;20.60;51.40;;;;;;4970647;28;88124;-84
2022/02/02 05:08:45;;;;;;;4.43;2.00;;;20.60;51.30;;;;;;4971108;28;86855;-84
2022/02/02 05:12:29;;;;;;;3.75;1.90;;;20.60;51.40;;;;;;4969194;28;88596;-83
2022/02/02 05:53:41;;;;;;;4.90;2.22;;;20.40;51.20;;;;;;4969304;28;87463;-83
2022/02/02 05:56:07;;;;;;;3.47;1.60;;;20.40;51.30;;;;;;4968321;28;89042;-84
2022/02/02 05:58:37;;;;;;;4.10;2.22;;;20.40;51.20;;;;;;4969714;28;87874;-84
2022/02/02 06:01:07;;;;;;;4.28;1.90;;;20.40;51.60;;;;;;4970151;28;87553;-85
2022/02/02 06:03:48;;;;;;;3.88;2.20;;;20.40;51.40;;;;;;4969660;28;90842;-84
2022/02/02 06:06:16;;;;;;;4.32;2.00;;;20.40;51.20;;;;;;4969321;28;87949;-84
2022/02/02 06:08:45;;;;;;;2.60;1.77;;;20.40;51.30;;;;;;4969421;28;88596;-84
2022/02/02 06:11:16;;;;;;;3.20;1.87;;;20.40;51.20;;;;;;4968968;28;87541;-84
2022/02/02 06:13:49;;;;;;;5.68;2.20;;;20.40;51.30;;;;;;4968765;28;87775;-84
2022/02/02 06:16:15;;;;;;;3.65;1.92;;;20.40;51.30;;;;;;4970804;28;87697;-84
2022/02/02 06:18:41;;;;;;;3.63;2.00;;;20.40;51.30;;;;;;4968702;28;87281;-83
2022/02/02 06:21:08;;;;;;;3.20;1.88;;;20.40;51.40;;;;;;4968338;28;87759;-84
2022/02/02 06:23:38;;;;;;;3.58;1.75;;;20.40;51.30;;;;;;4970202;28;88054;-84
2022/02/02 06:26:04;;;;;;;;;;;20.40;51.20;;;;;;4969838;28;91361;-84
2022/02/02 06:28:33;;;;;;;3.55;1.77;;;20.40;51.10;;;;;;4971839;28;87501;-84
2022/02/02 06:31:02;;;;;;;4.38;2.05;;;20.40;51.10;;;;;;4968090;28;88260;-83
2022/02/02 06:33:33;;;;;;;4.22;1.65;;;20.40;51.00;;;;;;4967975;28;90141;-84
2022/02/02 06:36:00;;;;;;;3.80;1.90;;;20.40;51.10;;;;;;4968141;28;91491;-84
2022/02/02 06:38:27;;;;;;;5.05;1.90;;;20.40;51.20;;;;;;4968116;28;87546;-84
2022/02/02 06:40:54;;;;;;;4.65;1.70;;;20.40;51.10;;;;;;4967538;28;89656;-84
2022/02/02 06:43:20;;;;;;;4.18;1.85;;;20.40;50.90;;;;;;4969563;28;90141;-84
2022/02/02 06:45:46;;;;;;;3.85;1.90;;;20.40;51.10;;;;;;4983496;28;88268;-84
2022/02/02 06:48:11;;;;;;;4.03;2.05;;;20.40;51.20;;;;;;4967191;28;87123;-83
2022/02/02 06:50:42;;;;;;;7.30;1.98;;;20.40;51.30;;;;;;4969107;28;87948;-84
2022/02/02 06:53:22;;;;;;;4.95;2.20;;;20.40;52.00;;;;;;4966516;28;88843;-83
2022/02/02 06:56:16;;;;;;;3.15;1.55;;;20.50;50.70;;;;;;4969847;28;88736;-83
2022/02/02 06:59:06;;;;;;;3.97;2.00;;;20.50;51.70;;;;;;4969844;28;88830;-84
2022/02/02 07:07:59;;;;;;;4.57;2.33;;;20.70;51.80;;;;;;4958981;28;87549;-85
2022/02/02 07:13:39;;;;;;;4.97;1.98;;;20.80;51.70;;;;;;4969936;28;87182;-84
2022/02/02 07:32:20;;;;;;;6.75;2.40;;;20.90;52.10;;;;;;4972545;28;87922;-84
2022/02/02 07:35:29;;;;;;;4.10;1.88;;;20.90;51.50;;;;;;4972055;28;86948;-84
2022/02/02 07:37:52;;;;;;;4.28;1.83;;;20.90;51.20;;;;;;4971352;28;88789;-84
2022/02/02 07:40:20;;;;;;;3.75;1.88;;;20.90;51.00;;;;;;4971629;28;87518;-84
2022/02/02 07:42:49;;;;;;;4.77;2.07;;;20.90;51.10;;;;;;4971805;28;86987;-83
2022/02/02 07:45:18;;;;;;;4.70;2.10;;;20.90;51.40;;;;;;4973129;28;86840;-83
2022/02/02 07:47:47;;;;;;;4.05;2.20;;;20.90;50.90;;;;;;4972666;28;88778;-84
2022/02/02 07:50:13;;;;;;;3.45;1.73;;;20.90;50.50;;;;;;4972427;28;87705;-84
2022/02/02 07:52:41;;;;;;;3.90;2.03;;;20.90;50.60;;;;;;4972568;28;87974;-84
2022/02/02 07:55:08;;;;;;;4.68;2.40;;;20.90;51.50;;;;;;4971627;28;87578;-84
2022/02/02 07:57:36;;;;;;;2.92;1.95;;;20.90;51.30;;;;;;4986200;28;88994;-84
2022/02/02 08:00:08;;;;;;;8.32;2.42;;;20.90;51.40;;;;;;4971408;28;87453;-84
2022/02/02 08:05:06;;;;;;;7.38;1.90;;;20.90;51.50;;;;;;4972375;28;87626;-83
2022/02/02 08:07:40;;;;;;;65.50;14.70;;;20.80;51.60;;;;;;4972193;28;87803;-84
2022/02/02 08:12:42;;;;;;;38.15;8.18;;;20.80;51.30;;;;;;4974275;28;87384;-84
2022/02/02 08:15:09;;;;;;;50.75;12.80;;;20.80;51.70;;;;;;4971917;28;90403;-84
2022/02/02 08:17:35;;;;;;;33.00;9.88;;;20.80;51.80;;;;;;4972299;28;89056;-84
2022/02/02 08:20:01;;;;;;;45.28;10.35;;;20.80;52.60;;;;;;4972270;28;88217;-84
2022/02/02 08:22:29;;;;;;;41.63;9.95;;;20.80;52.80;;;;;;4965905;28;88365;-84
2022/02/02 08:24:58;;;;;;;83.88;19.48;;;20.80;53.30;;;;;;4972347;28;87308;-84
2022/02/02 08:27:24;;;;;;;72.40;19.60;;;20.80;52.70;;;;;;4969576;28;88588;-84
2022/02/02 08:29:50;;;;;;;93.47;23.73;;;20.90;52.60;;;;;;4970052;28;87460;-84
2022/02/02 08:32:29;;;;;;;90.43;20.38;;;20.90;52.30;;;;;;4970738;28;87345;-84
2022/02/02 08:35:00;;;;;;;64.97;16.13;;;20.90;52.60;;;;;;4970928;28;87120;-83
2022/02/02 08:37:32;;;;;;;57.63;14.88;;;20.90;53.00;;;;;;4971982;28;88238;-86
2022/02/02 08:40:18;;;;;;;68.97;16.83;;;20.90;52.60;;;;;;4972496;28;88045;-84
2022/02/02 08:42:44;;;;;;;51.00;14.00;;;20.90;52.40;;;;;;4969605;28;88139;-84
2022/02/02 08:47:41;;;;;;;63.03;14.30;;;20.90;53.20;;;;;;4970598;28;87440;-84
2022/02/02 08:50:09;;;;;;;56.10;13.90;;;21.00;52.50;;;;;;4969725;28;88035;-84
2022/02/02 08:52:48;;;;;;;53.30;14.20;;;21.00;52.00;;;;;;4970760;28;88024;-84
2022/02/02 08:55:19;;;;;;;47.65;13.85;;;21.00;52.70;;;;;;4970170;28;88017;-83
2022/02/02 09:00:34;;;;;;;177.07;48.47;;;21.00;53.70;;;;;;4971652;28;87195;-83
2022/02/02 09:05:44;;;;;;;121.97;36.17;;;21.00;53.20;;;;;;4970435;28;87259;-83
2022/02/02 09:08:10;;;;;;;102.80;29.83;;;20.90;52.80;;;;;;4969571;28;88828;-83
2022/02/02 09:24:48;;;;;;;45.25;14.93;;;21.00;53.50;;;;;;4966613;28;88231;-84
2022/02/02 09:35:03;;;;;;;43.58;13.90;;;21.00;53.50;;;;;;4976247;28;88316;-84
2022/02/02 09:37:29;;;;;;;41.72;12.73;;;21.00;52.60;;;;;;4972234;28;87905;-84
2022/02/02 09:40:49;;;;;;;40.92;11.70;;;20.90;52.00;;;;;;4972314;28;89252;-83
2022/02/02 09:42:56;;;;;;;36.15;11.60;;;21.00;53.10;;;;;;4970504;28;88243;-83
2022/02/02 09:45:27;;;;;;;39.22;11.80;;;21.00;52.60;;;;;;4974840;28;87300;-84
2022/02/02 09:47:58;;;;;;;38.35;11.93;;;21.00;52.50;;;;;;4975371;28;87308;-84
2022/02/02 09:50:34;;;;;;;35.53;10.35;;;21.00;51.90;;;;;;4974768;28;91031;-84
2022/02/02 09:53:03;;;;;;;29.80;10.55;;;21.00;52.70;;;;;;4969840;28;90088;-84
2022/02/02 10:01:44;;;;;;;33.47;11.02;;;20.90;50.20;;;;;;4968223;28;88092;-84
2022/02/02 10:15:23;;;;;;;33.22;11.35;;;20.90;52.30;;;;;;4978030;28;87618;-85
2022/02/02 10:18:14;;;;;;;32.95;10.90;;;21.00;52.50;;;;;;4969917;28;87734;-84
2022/02/02 10:20:41;;;;;;;29.15;9.60;;;21.00;52.90;;;;;;4975739;28;87101;-84
2022/02/02 10:23:08;;;;;;;30.15;9.73;;;21.00;53.30;;;;;;4968315;28;88873;-84
2022/02/02 10:25:40;;;;;;;34.20;9.95;;;21.00;52.90;;;;;;4971053;28;89993;-83
2022/02/02 10:28:16;;;;;;;30.90;9.82;;;21.00;53.00;;;;;;4979402;28;88135;-84
2022/02/02 10:30:48;;;;;;;30.73;9.48;;;21.00;52.90;;;;;;4975422;28;87839;-83
2022/02/02 10:33:41;;;;;;;24.92;9.07;;;21.00;53.20;;;;;;4967729;28;88243;-84
2022/02/02 10:36:20;;;;;;;32.20;9.52;;;21.10;53.50;;;;;;4967832;28;88186;-84
2022/02/02 10:39:11;;;;;;;;;;;21.10;53.60;;;;;;4966486;28;87342;-85
2022/02/02 10:41:58;;;;;;;25.10;9.13;;;21.10;53.90;;;;;;4971919;28;87647;-84
2022/02/02 10:44:41;;;;;;;23.90;8.27;;;21.10;53.80;;;;;;4976040;28;88176;-84
2022/02/02 10:47:25;;;;;;;27.98;8.25;;;21.20;53.60;;;;;;4973349;28;87525;-84
2022/02/02 10:50:13;;;;;;;28.77;9.50;;;21.20;53.70;;;;;;4969156;28;87816;-85
2022/02/02 10:52:56;;;;;;;24.60;8.27;;;21.20;53.60;;;;;;4970418;28;89270;-85
2022/02/02 11:08:53;;;;;;;25.58;8.38;;;21.20;54.10;;;;;;4969173;28;87950;-84
2022/02/02 11:11:29;;;;;;;21.73;7.88;;;21.10;54.10;;;;;;4970201;28;87924;-85
2022/02/02 11:14:01;;;;;;;21.23;7.43;;;21.10;54.00;;;;;;4971749;28;87468;-84
2022/02/02 11:16:32;;;;;;;18.08;7.10;;;21.10;54.10;;;;;;4969950;28;88322;-84
2022/02/02 11:19:04;;;;;;;19.35;7.85;;;21.10;54.20;;;;;;4971205;28;88700;-85
2022/02/02 11:21:33;;;;;;;20.77;7.50;;;21.10;54.20;;;;;;4970359;28;88483;-84
2022/02/02 11:23:59;;;;;;;20.25;7.78;;;21.10;54.00;;;;;;4971242;28;87766;-85
2022/02/02 11:26:41;;;;;;;22.17;7.28;;;21.10;54.70;;;;;;4975027;28;87412;-84
2022/02/02 11:29:36;;;;;;;18.65;7.93;;;21.10;53.70;;;;;;4989842;28;90725;-84
2022/02/02 11:32:05;;;;;;;17.52;7.32;;;21.10;54.30;;;;;;4973974;28;87487;-84
2022/02/02 11:34:31;;;;;;;21.17;7.40;;;21.20;54.50;;;;;;4973719;28;88606;-85
2022/02/02 11:36:57;;;;;;;18.63;6.85;;;21.20;54.70;;;;;;4973546;28;91020;-83
2022/02/02 11:39:57;;;;;;;20.23;7.43;;;21.20;55.00;;;;;;4974820;28;87998;-84
2022/02/02 11:45:44;;;;;;;20.38;6.72;;;21.30;55.70;;;;;;4946961;28;87918;-84
2022/02/02 11:48:19;;;;;;;17.20;6.90;;;21.30;55.70;;;;;;4975381;28;88625;-85
2022/02/02 11:50:51;;;;;;;19.80;6.47;;;21.30;55.40;;;;;;4975857;28;88566;-83
2022/02/02 11:54:01;;;;;;;15.52;6.53;;;21.30;55.70;;;;;;4975754;28;87934;-84
2022/02/02 11:56:28;;;;;;;21.33;6.95;;;21.40;55.60;;;;;;4978191;28;87774;-84
2022/02/02 11:58:58;;;;;;;16.50;6.28;;;21.40;55.90;;;;;;4975981;28;91943;-84
2022/02/02 12:01:42;;;;;;;17.35;6.30;;;21.40;56.10;;;;;;4986041;28;90739;-83
2022/02/02 12:04:41;;;;;;;22.35;7.03;;;21.40;55.60;;;;;;4973205;28;87388;-83
2022/02/02 12:07:09;;;;;;;20.73;6.35;;;21.40;56.60;;;;;;4967754;28;86809;-83
2022/02/02 12:09:57;;;;;;;18.75;6.65;;;21.40;56.10;;;;;;4968527;28;91562;-83
2022/02/02 13:00:07;;;;;;;;;;;21.50;57.90;;;;;;4969941;28;87115;-84
2022/02/02 13:02:52;;;;;;;19.63;5.60;;;21.50;58.10;;;;;;4967879;28;87323;-83
2022/02/02 13:05:31;;;;;;;24.33;6.18;;;21.60;58.00;;;;;;4974184;28;88126;-83
2022/02/02 13:08:01;;;;;;;24.20;6.05;;;21.60;57.50;;;;;;4973505;28;87851;-83
2022/02/02 13:10:30;;;;;;;20.40;5.68;;;21.60;57.50;;;;;;4969622;28;88441;-83
2022/02/02 13:13:28;;;;;;;16.95;5.28;;;21.60;57.40;;;;;;4972277;28;87379;-83
2022/02/02 13:16:27;;;;;;;14.15;5.45;;;21.60;57.10;;;;;;4972837;28;89213;-83
2022/02/02 13:18:56;;;;;;;15.43;5.15;;;21.60;57.50;;;;;;4971732;28;87579;-84
2022/02/02 13:21:30;;;;;;;14.90;5.20;;;21.60;57.40;;;;;;4975878;28;88023;-82
2022/02/02 13:24:16;;;;;;;13.13;4.68;;;21.60;57.30;;;;;;4969746;28;87113;-83
2022/02/02 13:26:57;;;;;;;13.02;5.38;;;21.60;57.20;;;;;;4967720;28;89352;-84
2022/02/02 13:32:09;;;;;;;16.02;5.47;;;21.60;57.20;;;;;;4971322;28;88200;-83
2022/02/02 14:01:38;;;;;;;10.20;4.68;;;21.70;56.50;;;;;;4974439;28;87510;-84
2022/02/02 14:04:25;;;;;;;20.60;4.80;;;21.70;56.50;;;;;;4972006;28;88909;-84
2022/02/02 14:07:14;;;;;;;11.85;4.50;;;21.70;56.40;;;;;;4968819;28;86934;-84
2022/02/02 14:31:26;;;;;;;7.57;3.53;;;21.70;57.00;;;;;;4975726;28;88985;-83
2022/02/02 14:33:56;;;;;;;11.10;3.97;;;21.70;56.60;;;;;;4966712;28;88769;-84
2022/02/02 14:36:26;;;;;;;18.33;5.43;;;21.70;56.80;;;;;;4969382;28;87750;-84
2022/02/02 14:39:07;;;;;;;25.58;6.20;;;21.70;56.00;;;;;;4971006;28;87689;-84
2022/02/02 14:41:47;;;;;;;23.05;6.35;;;21.70;56.10;;;;;;4964662;28;90673;-84
2022/02/02 14:44:20;;;;;;;22.63;7.05;;;21.70;55.50;;;;;;4971466;28;87852;-83
2022/02/02 14:49:23;;;;;;;32.33;7.90;;;21.70;56.20;;;;;;4968890;28;86860;-84
2022/02/02 15:23:50;;;;;;;37.38;9.40;;;21.80;57.80;;;;;;4971029;28;86925;-84
2022/02/02 15:27:51;;;;;;;41.28;9.63;;;21.80;57.90;;;;;;4972081;28;87051;-83
2022/02/02 15:30:33;;;;;;;35.03;8.93;;;21.80;58.20;;;;;;4969430;28;87868;-84
2022/02/02 15:33:02;;;;;;;29.17;8.45;;;21.80;58.20;;;;;;4978719;28;87630;-83
2022/02/02 15:35:33;;;;;;;28.83;8.85;;;21.80;58.30;;;;;;4967316;28;87839;-84
2022/02/02 15:38:13;;;;;;;38.00;8.77;;;21.80;58.50;;;;;;4975632;28;87699;-83
2022/02/02 15:40:46;;;;;;;33.53;9.23;;;21.80;58.60;;;;;;4970676;28;87145;-83
2022/02/02 15:58:06;;;;;;;27.95;8.07;;;21.90;59.20;;;;;;4980060;28;87279;-84
2022/02/02 16:05:07;;;;;;;23.27;5.18;;;21.90;59.00;;;;;;4927446;28;87643;-83
2022/02/02 16:07:32;;;;;;;24.52;6.78;;;21.90;55.30;;;;;;4965687;28;87567;-82
2022/02/02 16:10:04;;;;;;;22.65;6.95;;;21.90;57.00;;;;;;4973148;28;87723;-82
2022/02/02 16:12:46;;;;;;;32.45;7.70;;;21.80;56.20;;;;;;4977129;28;87364;-84
2022/02/02 16:18:03;;;;;;;31.38;7.25;;;21.90;59.40;;;;;;4973388;28;88351;-83
2022/02/02 16:37:04;;;;;;;21.52;6.95;;;21.90;58.30;;;;;;4970067;28;87005;-84
2022/02/02 16:39:33;;;;;;;20.92;6.13;;;21.90;58.80;;;;;;4969583;28;88240;-84
2022/02/02 16:44:43;;;;;;;24.98;7.30;;;22.00;54.50;;;;;;4969216;28;88570;-82
2022/02/02 16:47:08;;;;;;;25.08;6.13;;;21.80;55.00;;;;;;4974252;28;87812;-84
2022/02/02 16:49:34;;;;;;;23.90;6.13;;;21.80;56.50;;;;;;4970764;28;87991;-83
2022/02/02 16:51:59;;;;;;;27.00;5.95;;;21.80;56.70;;;;;;4977184;28;88375;-84
2022/02/02 16:54:30;;;;;;;20.20;6.22;;;21.80;58.20;;;;;;4973030;28;86965;-84
2022/02/02 17:27:01;;;;;;;13.85;5.05;;;21.90;57.70;;;;;;4974914;28;87855;-84
2022/02/02 17:30:12;;;;;;;12.75;4.68;;;21.90;57.90;;;;;;4976522;28;86204;-84
2022/02/02 17:32:58;;;;;;;13.68;5.05;;;21.90;58.10;;;;;;4970601;28;88073;-85
2022/02/02 17:35:41;;;;;;;12.85;4.57;;;21.90;58.00;;;;;;4975163;28;90109;-84
2022/02/02 17:38:23;;;;;;;13.27;5.05;;;21.90;58.00;;;;;;4967202;28;88582;-84
2022/02/02 17:44:02;;;;;;;13.35;5.13;;;21.90;58.50;;;;;;4977660;28;88301;-84
2022/02/02 18:18:53;;;;;;;14.35;4.78;;;21.90;58.50;;;;;;4978331;28;87667;-84
2022/02/02 18:21:28;;;;;;;11.30;4.20;;;21.90;59.10;;;;;;4971076;28;87925;-83
2022/02/02 18:29:05;;;;;;;17.45;4.80;;;22.00;59.70;;;;;;4968563;28;87784;-82
2022/02/02 18:34:38;;;;;;;17.58;5.28;;;22.00;59.20;;;;;;4954889;28;87714;-83
2022/02/02 18:47:43;;;;;;;12.25;4.85;;;21.90;59.70;;;;;;4967722;28;87410;-84
2022/02/02 19:14:47;;;;;;;10.20;5.45;;;22.00;59.80;;;;;;4966771;28;87566;-82
2022/02/02 20:11:43;;;;;;;12.20;5.40;;;22.00;59.50;;;;;;4978715;28;87096;-82
2022/02/02 20:14:10;;;;;;;11.13;5.20;;;22.00;59.20;;;;;;4982678;28;87859;-82
2022/02/02 20:16:40;;;;;;;9.68;4.80;;;22.00;59.10;;;;;;4975830;28;87392;-83
2022/02/02 20:19:09;;;;;;;9.23;4.90;;;22.00;59.30;;;;;;4975472;28;89011;-84
2022/02/02 20:21:43;;;;;;;11.18;5.60;;;22.00;59.00;;;;;;4979589;28;87216;-84
2022/02/02 20:24:09;;;;;;;9.48;4.45;;;22.00;58.80;;;;;;4977842;28;89781;-83
2022/02/02 20:26:36;;;;;;;10.40;5.35;;;22.00;58.90;;;;;;4980228;28;87936;-84
2022/02/02 20:29:03;;;;;;;12.38;5.25;;;22.00;59.20;;;;;;4980354;28;87511;-84
2022/02/02 20:31:31;;;;;;;9.30;4.57;;;22.00;59.10;;;;;;4978093;28;87127;-84
2022/02/02 20:33:57;;;;;;;13.38;4.90;;;22.00;59.20;;;;;;4974589;28;90256;-84
2022/02/02 20:36:23;;;;;;;6.80;4.35;;;22.00;60.10;;;;;;4976919;28;87879;-82
2022/02/02 20:38:48;;;;;;;10.07;5.07;;;22.00;58.90;;;;;;4976834;28;87092;-84
2022/02/02 20:41:14;;;;;;;8.57;4.45;;;22.00;58.90;;;;;;4978667;28;89346;-84
2022/02/02 21:03:34;;;;;;;7.93;4.57;;;22.00;58.80;;;;;;4950714;28;87390;-83
2022/02/02 21:11:55;;;;;;;7.35;4.55;;;22.00;58.80;;;;;;4974169;28;88400;-83
2022/02/02 21:14:23;;;;;;;7.03;4.68;;;22.00;58.80;;;;;;4978214;28;87442;-84
2022/02/02 21:16:49;;;;;;;7.43;4.85;;;22.00;58.70;;;;;;4975512;28;87896;-84
2022/02/02 21:19:27;;;;;;;9.45;3.78;;;22.00;58.50;;;;;;4974535;28;87761;-84
2022/02/02 21:21:58;;;;;;;7.80;4.50;;;22.00;59.80;;;;;;4978034;28;87829;-83
2022/02/02 21:27:16;;;;;;;9.48;3.97;;;22.00;59.20;;;;;;4976424;28;87494;-83
2022/02/02 21:29:38;;;;;;;5.15;3.38;;;22.00;59.50;;;;;;4976499;28;88965;-83
2022/02/02 21:32:04;;;;;;;7.03;4.20;;;22.00;59.80;;;;;;4975082;28;86957;-84
2022/02/02 21:34:30;;;;;;;13.93;4.75;;;22.00;59.30;;;;;;4980121;28;87518;-83
2022/02/02 21:37:01;;;;;;;8.27;4.60;;;22.00;59.70;;;;;;4967313;28;91998;-84
2022/02/02 21:39:28;;;;;;;6.32;4.07;;;22.00;59.80;;;;;;4972384;28;90388;-84
2022/02/02 21:41:56;;;;;;;10.77;4.03;;;22.00;59.50;;;;;;4970613;28;87890;-84
2022/02/02 21:44:29;;;;;;;7.43;4.90;;;22.00;60.00;;;;;;4968219;28;89086;-84
2022/02/02 21:46:57;;;;;;;11.50;4.18;;;22.00;59.40;;;;;;4969758;28;90487;-83
2022/02/02 21:49:25;;;;;;;9.60;3.92;;;22.00;59.50;;;;;;4972154;28;89603;-84
2022/02/02 21:52:16;;;;;;;6.60;4.18;;;22.00;59.20;;;;;;4975478;28;88396;-84
2022/02/02 21:54:37;;;;;;;5.47;4.05;;;22.00;59.10;;;;;;4977497;28;87295;-84
2022/02/02 21:57:04;;;;;;;8.55;4.45;;;22.00;59.00;;;;;;4970570;28;88624;-84
2022/02/02 21:59:30;;;;;;;6.70;3.70;;;22.00;58.60;;;;;;4973761;28;87669;-84
2022/02/02 22:01:56;;;;;;;7.03;3.28;;;22.00;58.50;;;;;;4977943;28;88674;-84
2022/02/02 22:07:05;;;;;;;4.97;3.67;;;21.90;58.60;;;;;;4709722;26;87860;-82
2022/02/02 22:09:31;;;;;;;8.40;4.13;;;21.90;58.70;;;;;;4971315;28;87398;-84
2022/02/02 22:11:56;;;;;;;5.93;3.90;;;21.90;58.10;;;;;;4965692;28;87547;-84
2022/02/02 22:14:23;;;;;;;8.70;3.83;;;21.90;58.90;;;;;;4965726;28;87328;-85
2022/02/02 22:16:50;;;;;;;8.05;3.67;;;21.90;58.90;;;;;;4962356;28;88671;-81
2022/02/02 22:19:16;;;;;;;7.95;4.10;;;21.90;59.10;;;;;;4952383;28;87782;-86
2022/02/02 22:21:41;;;;;;;5.55;3.70;;;21.90;59.10;;;;;;4961366;28;87459;-85
2022/02/02 22:24:07;;;;;;;6.93;3.42;;;21.80;59.20;;;;;;4971684;28;88012;-84
2022/02/02 22:26:35;;;;;;;6.18;3.45;;;21.80;59.40;;;;;;4963868;28;89058;-82
2022/02/02 22:29:00;;;;;;;5.80;3.50;;;21.80;59.20;;;;;;4954142;28;89003;-84
2022/02/02 22:31:26;;;;;;;4.78;3.25;;;21.80;59.10;;;;;;4965850;28;87806;-83
2022/02/02 22:33:53;;;;;;;6.68;3.75;;;21.80;59.10;;;;;;4964886;28;88060;-84
2022/02/02 22:36:19;;;;;;;4.82;3.20;;;21.80;59.30;;;;;;4959199;28;88480;-83
2022/02/02 22:38:45;;;;;;;7.53;3.53;;;21.80;59.10;;;;;;4963432;28;87538;-86
2022/02/02 22:41:12;;;;;;;5.07;3.30;;;21.80;59.80;;;;;;4959375;28;87908;-82
2022/02/02 22:43:45;;;;;;;5.90;3.40;;;21.80;59.00;;;;;;4962473;28;87009;-83
2022/02/02 22:46:11;;;;;;;6.80;3.83;;;21.80;58.90;;;;;;4960575;28;88972;-84
2022/02/02 22:48:39;;;;;;;7.45;3.70;;;21.80;58.90;;;;;;4966430;28;87565;-85
2022/02/02 22:51:04;;;;;;;8.02;3.95;;;21.70;58.90;;;;;;4967903;28;89231;-81
2022/02/02 22:53:31;;;;;;;7.20;3.53;;;21.70;59.10;;;;;;4968754;28;88067;-80
2022/02/02 22:55:56;;;;;;;7.75;3.72;;;21.80;59.00;;;;;;4968663;28;88255;-85
2022/02/02 22:58:22;;;;;;;6.03;3.30;;;21.70;58.90;;;;;;4959059;28;87611;-84
2022/02/02 23:00:49;;;;;;;5.13;3.35;;;21.70;58.90;;;;;;4965453;28;87256;-84
2022/02/02 23:03:18;;;;;;;5.57;3.63;;;21.70;58.80;;;;;;4968898;28;87811;-82
2022/02/02 23:05:47;;;;;;;6.07;3.58;;;21.70;58.70;;;;;;4965455;28;88852;-84
2022/02/02 23:08:16;;;;;;;6.05;3.85;;;21.70;58.60;;;;;;4961809;28;87085;-86
2022/02/02 23:10:42;;;;;;;5.50;3.65;;;21.70;58.70;;;;;;4967116;28;87451;-84
2022/02/02 23:13:11;;;;;;;5.50;3.30;;;21.70;58.70;;;;;;4954821;28;88172;-86
2022/02/02 23:15:43;;;;;;;5.70;3.55;;;21.70;58.50;;;;;;4962745;28;89005;-85
2022/02/02 23:18:21;;;;;;;7.82;3.92;;;21.70;58.40;;;;;;4959741;28;88161;-86
2022/02/02 23:20:59;;;;;;;5.63;3.55;;;21.70;58.40;;;;;;4957567;28;86893;-86
2022/02/02 23:23:35;;;;;;;5.18;3.47;;;21.70;58.30;;;;;;4960554;28;87634;-81
2022/02/02 23:26:02;;;;;;;5.75;3.40;;;21.70;58.50;;;;;;4959304;28;88521;-87
2022/02/02 23:28:40;;;;;;;5.82;3.78;;;21.60;58.20;;;;;;4962833;28;87284;-85
2022/02/02 23:31:09;;;;;;;6.82;3.70;;;21.60;58.20;;;;;;4963461;28;87875;-85
2022/02/02 23:33:42;;;;;;;6.18;3.65;;;21.60;58.20;;;;;;4959244;28;87315;-84
2022/02/02 23:36:09;;;;;;;5.43;3.53;;;21.70;58.20;;;;;;4957169;28;87558;-82
2022/02/02 23:38:35;;;;;;;5.63;3.70;;;21.60;58.10;;;;;;4962062;28;87093;-84
2022/02/02 23:43:45;;;;;;;5.32;3.55;;;21.60;58.10;;;;;;4962677;28;88054;-85
2022/02/02 23:46:14;;;;;;;4.90;3.58;;;21.60;58.10;;;;;;4953884;28;88244;-84
2022/02/02 23:48:43;;;;;;;6.65;3.35;;;21.60;57.90;;;;;;4957970;28;87963;-84
2022/02/02 23:51:20;;;;;;;7.38;3.60;;;21.60;57.80;;;;;;4958331;28;87890;-84
2022/02/02 23:53:56;;;;;;;5.82;3.97;;;21.60;57.80;;;;;;4953750;28;89495;-85
2022/02/02 23:59:24;;;;;;;5.35;3.10;;;21.60;57.90;;;;;;4958505;28;87216;-81
